createdAt,value
2018-07-20T00:02:24.144Z,3.07
2018-07-20T00:04:52.549Z,3.73
2018-07-20T00:07:21.080Z,3.60
2018-07-20T00:09:49.514Z,3.97
2018-07-20T00:12:18.163Z,3.73
2018-07-20T00:14:46.801Z,4.07
2018-07-20T00:17:15.510Z,3.87
2018-07-20T00:19:58.441Z,4.13
2018-07-20T00:22:26.864Z,3.83
2018-07-20T00:24:55.524Z,3.63
2018-07-20T00:27:24.293Z,3.70
2018-07-20T00:29:53.184Z,3.70
2018-07-20T00:32:21.633Z,3.90
2018-07-20T00:34:50.040Z,3.87
2018-07-20T00:37:18.505Z,4.10
2018-07-20T00:39:46.938Z,3.90
2018-07-20T00:42:15.341Z,4.10
2018-07-20T00:44:43.734Z,4.43
2018-07-20T00:47:12.180Z,4.23
2018-07-20T00:49:40.606Z,4.33
2018-07-20T00:52:08.992Z,4.70
2018-07-20T00:54:37.350Z,3.83
2018-07-20T00:57:05.750Z,4.10
2018-07-20T00:59:34.165Z,4.30
2018-07-20T01:02:02.561Z,4.17
2018-07-20T01:04:31.031Z,4.17
2018-07-20T01:06:59.366Z,4.27
2018-07-20T01:09:27.836Z,4.43
2018-07-20T01:11:56.208Z,4.53
2018-07-20T01:14:24.600Z,4.37
2018-07-20T01:16:53.018Z,4.47
2018-07-20T01:19:21.493Z,4.10
2018-07-20T01:21:50.179Z,4.40
2018-07-20T01:24:18.609Z,5.17
2018-07-20T01:26:47.102Z,5.00
2018-07-20T01:29:15.518Z,5.00
2018-07-20T01:31:43.889Z,4.57
2018-07-20T01:34:12.373Z,4.60
2018-07-20T01:36:40.748Z,4.50
2018-07-20T01:39:09.785Z,4.97
2018-07-20T01:41:38.424Z,4.13
2018-07-20T01:44:07.046Z,4.50
2018-07-20T01:46:35.481Z,4.40
2018-07-20T01:49:04.199Z,4.77
2018-07-20T01:51:32.940Z,4.87
2018-07-20T01:54:01.414Z,4.30
2018-07-20T01:56:29.943Z,4.63
2018-07-20T01:58:58.411Z,4.67
2018-07-20T02:01:26.834Z,4.53
2018-07-20T02:03:55.261Z,4.63
2018-07-20T02:06:23.687Z,4.30
2018-07-20T02:08:52.095Z,3.87
2018-07-20T02:11:20.521Z,4.93
2018-07-20T02:13:48.928Z,4.77
2018-07-20T02:16:17.281Z,4.57
2018-07-20T02:18:45.672Z,4.20
2018-07-20T02:21:14.022Z,4.10
2018-07-20T02:24:13.131Z,4.60
2018-07-20T02:26:41.615Z,4.00
2018-07-20T02:29:09.941Z,3.90
2018-07-20T02:31:38.321Z,4.67
2018-07-20T02:34:06.830Z,4.37
2018-07-20T02:36:35.287Z,3.90
2018-07-20T02:39:05.049Z,4.20
2018-07-20T02:41:33.447Z,4.83
2018-07-20T02:44:01.935Z,4.43
2018-07-20T02:46:30.384Z,4.10
2018-07-20T02:48:58.767Z,4.00
2018-07-20T02:51:27.168Z,3.97
2018-07-20T02:53:55.829Z,4.37
2018-07-20T02:56:24.265Z,4.20
2018-07-20T02:58:52.674Z,4.23
2018-07-20T03:01:21.067Z,4.67
2018-07-20T03:03:49.476Z,5.00
2018-07-20T03:06:17.854Z,4.60
2018-07-20T03:08:46.193Z,4.23
2018-07-20T03:11:14.618Z,4.60
2018-07-20T03:13:43.257Z,4.63
2018-07-20T03:16:11.672Z,4.70
2018-07-20T03:18:40.107Z,4.40
2018-07-20T03:21:08.531Z,4.37
2018-07-20T03:23:36.957Z,4.43
2018-07-20T03:26:06.109Z,3.87
2018-07-20T03:28:34.584Z,4.67
2018-07-20T03:31:03.090Z,4.57
2018-07-20T03:33:31.505Z,4.37
2018-07-20T03:35:59.957Z,3.73
2018-07-20T03:38:28.386Z,4.10
2018-07-20T03:40:56.821Z,4.50
2018-07-20T03:43:25.237Z,3.90
2018-07-20T03:45:53.651Z,4.23
2018-07-20T03:48:22.081Z,4.77
2018-07-20T03:50:50.448Z,4.67
2018-07-20T03:53:18.833Z,4.73
2018-07-20T03:55:47.193Z,4.30
2018-07-20T03:58:15.589Z,5.17
2018-07-20T04:00:43.986Z,4.23
2018-07-20T04:03:12.445Z,4.73
2018-07-20T04:05:41.571Z,4.10
2018-07-20T04:08:10.210Z,4.03
2018-07-20T04:10:39.961Z,4.10
2018-07-20T04:13:11.476Z,4.40
2018-07-20T04:15:39.995Z,4.33
2018-07-20T04:18:08.366Z,4.30
2018-07-20T04:20:36.797Z,4.57
2018-07-20T04:23:05.286Z,3.93
2018-07-20T04:25:33.787Z,3.60
2018-07-20T04:28:02.298Z,3.60
2018-07-20T04:30:30.719Z,3.93
2018-07-20T04:32:59.221Z,4.10
2018-07-20T04:35:27.585Z,4.63
2018-07-20T04:37:56.266Z,4.13
2018-07-20T04:40:24.802Z,4.37
2018-07-20T04:42:53.239Z,4.87
2018-07-20T04:45:21.752Z,4.43
2018-07-20T04:47:50.640Z,4.40
2018-07-20T04:50:20.665Z,4.50
2018-07-20T04:52:50.640Z,4.27
2018-07-20T04:55:19.184Z,4.73
2018-07-20T04:57:47.685Z,4.17
2018-07-20T05:00:16.183Z,4.40
2018-07-20T05:02:44.689Z,4.73
2018-07-20T05:05:13.152Z,4.33
2018-07-20T05:07:41.550Z,5.30
2018-07-20T05:10:09.944Z,4.60
2018-07-20T05:12:38.321Z,4.80
2018-07-20T05:15:06.777Z,4.63
2018-07-20T05:17:35.229Z,4.10
2018-07-20T05:20:03.637Z,4.60
2018-07-20T05:22:32.095Z,4.90
2018-07-20T05:25:00.506Z,4.77
2018-07-20T05:27:28.992Z,5.13
2018-07-20T05:29:57.399Z,4.43
2018-07-20T05:32:25.868Z,4.87
2018-07-20T05:34:54.340Z,5.10
2018-07-20T05:37:22.744Z,4.87
2018-07-20T05:39:51.116Z,4.43
2018-07-20T05:42:19.526Z,4.53
2018-07-20T05:44:47.901Z,5.73
2018-07-20T05:47:16.302Z,4.97
2018-07-20T05:49:44.691Z,4.13
2018-07-20T05:52:13.142Z,4.80
2018-07-20T05:54:41.561Z,4.40
2018-07-20T05:57:09.995Z,4.27
2018-07-20T05:59:38.535Z,4.67
2018-07-20T06:02:07.012Z,4.40
2018-07-20T06:04:35.444Z,4.70
2018-07-20T06:07:03.880Z,4.77
2018-07-20T06:09:32.329Z,4.20
2018-07-20T06:12:00.836Z,4.23
2018-07-20T06:14:29.247Z,4.13
2018-07-20T06:16:57.699Z,4.90
2018-07-20T06:19:26.127Z,4.37
2018-07-20T06:21:54.487Z,4.50
2018-07-20T06:24:22.919Z,4.43
2018-07-20T06:26:51.314Z,4.60
2018-07-20T06:29:19.783Z,4.73
2018-07-20T06:31:48.214Z,4.30
2018-07-20T06:34:16.668Z,5.07
2018-07-20T06:36:45.051Z,4.10
2018-07-20T06:39:13.487Z,3.63
2018-07-20T06:41:42.531Z,3.87
2018-07-20T06:44:10.941Z,4.20
2018-07-20T06:46:39.387Z,3.90
2018-07-20T06:49:08.296Z,4.50
2018-07-20T06:51:37.302Z,3.97
2018-07-20T06:54:05.861Z,4.50
2018-07-20T06:56:34.364Z,4.27
2018-07-20T06:59:02.775Z,3.77
2018-07-20T07:01:31.236Z,3.43
2018-07-20T07:03:59.661Z,4.00
2018-07-20T07:06:28.109Z,3.73
2018-07-20T07:08:56.496Z,4.07
2018-07-20T07:11:24.912Z,3.90
2018-07-20T07:13:53.326Z,3.93
2018-07-20T07:16:21.803Z,3.40
2018-07-20T07:18:50.169Z,3.80
2018-07-20T07:21:18.558Z,3.83
2018-07-20T07:23:46.945Z,3.70
2018-07-20T07:26:15.441Z,3.83
2018-07-20T07:28:43.851Z,3.73
2018-07-20T07:31:12.289Z,4.10
2018-07-20T07:33:40.662Z,3.37
2018-07-20T07:36:09.231Z,3.40
2018-07-20T07:38:37.677Z,3.57
2018-07-20T07:41:06.206Z,3.53
2018-07-20T07:43:34.660Z,3.17
2018-07-20T07:46:03.055Z,3.60
2018-07-20T07:48:31.468Z,3.43
2018-07-20T07:50:59.957Z,3.33
2018-07-20T07:53:28.320Z,4.00
2018-07-20T07:55:56.814Z,3.33
2018-07-20T07:58:25.283Z,3.90
2018-07-20T08:00:53.769Z,3.70
2018-07-20T08:03:22.244Z,3.67
2018-07-20T08:05:50.663Z,3.80
2018-07-20T08:08:19.052Z,3.53
2018-07-20T08:10:47.519Z,3.57
2018-07-20T08:13:15.895Z,3.30
2018-07-20T08:15:44.307Z,3.30
2018-07-20T08:18:12.723Z,3.13
2018-07-20T08:20:41.155Z,3.63
2018-07-20T08:23:09.584Z,3.17
2018-07-20T08:25:37.989Z,3.50
2018-07-20T08:28:06.480Z,3.33
2018-07-20T08:30:34.864Z,3.50
2018-07-20T08:33:03.432Z,2.90
2018-07-20T08:35:31.877Z,3.13
2018-07-20T08:38:00.256Z,3.13
2018-07-20T08:40:28.846Z,3.37
2018-07-20T08:42:57.240Z,3.00
2018-07-20T08:45:25.720Z,3.00
2018-07-20T08:47:54.199Z,2.80
2018-07-20T08:50:22.550Z,2.87
2018-07-20T08:52:50.989Z,2.67
2018-07-20T08:55:19.602Z,2.37
2018-07-20T08:57:48.134Z,2.80
2018-07-20T09:00:16.579Z,2.50
2018-07-20T09:02:44.936Z,2.50
2018-07-20T09:05:13.312Z,2.40
2018-07-20T09:07:41.749Z,2.30
2018-07-20T09:10:10.379Z,2.90
2018-07-20T09:12:38.857Z,2.57
2018-07-20T09:15:07.319Z,2.70
2018-07-20T09:17:35.750Z,2.57
2018-07-20T09:20:04.169Z,3.00
2018-07-20T09:22:32.552Z,2.60
2018-07-20T09:25:00.952Z,2.70
2018-07-20T09:27:29.390Z,2.63
2018-07-20T09:29:57.773Z,2.60
2018-07-20T09:32:26.257Z,3.10
2018-07-20T09:34:54.877Z,2.50
2018-07-20T09:37:23.261Z,3.00
2018-07-20T09:39:51.706Z,2.72
2018-07-20T09:42:20.068Z,3.50
2018-07-20T09:44:48.446Z,2.90
2018-07-20T09:47:16.794Z,3.07
2018-07-20T09:49:45.165Z,3.00
2018-07-20T09:52:13.556Z,2.40
2018-07-20T09:54:41.961Z,3.10
2018-07-20T09:57:10.705Z,2.67
2018-07-20T09:59:39.174Z,3.23
2018-07-20T10:02:07.592Z,3.33
2018-07-20T10:04:36.100Z,3.45
2018-07-20T10:07:04.547Z,3.10
2018-07-20T10:09:32.905Z,3.00
2018-07-20T10:12:01.358Z,3.25
2018-07-20T10:14:29.796Z,2.90
2018-07-20T10:16:58.247Z,2.95
2018-07-20T10:19:26.632Z,2.92
2018-07-20T10:21:55.031Z,2.60
2018-07-20T10:24:23.409Z,3.27
2018-07-20T10:26:51.865Z,3.08
2018-07-20T10:29:20.263Z,3.20
2018-07-20T10:31:48.712Z,3.02
2018-07-20T10:34:17.094Z,3.30
2018-07-20T10:36:45.501Z,3.70
2018-07-20T10:39:13.872Z,2.80
2018-07-20T10:41:42.305Z,2.83
2018-07-20T10:44:10.827Z,2.83
2018-07-20T10:46:39.232Z,3.40
2018-07-20T10:49:07.876Z,3.05
2018-07-20T10:51:36.268Z,3.05
2018-07-20T10:54:04.680Z,2.92
2018-07-20T10:56:33.122Z,3.42
2018-07-20T10:59:01.534Z,3.50
2018-07-20T11:01:29.972Z,3.15
2018-07-20T11:03:58.563Z,3.27
2018-07-20T11:06:26.937Z,2.83
2018-07-20T11:08:55.349Z,3.50
2018-07-20T11:11:23.760Z,3.58
2018-07-20T11:13:52.167Z,3.25
2018-07-20T11:16:20.873Z,3.70
2018-07-20T11:18:49.267Z,4.00
2018-07-20T11:21:17.657Z,3.10
2018-07-20T11:23:46.106Z,3.67
2018-07-20T11:26:14.485Z,4.00
2018-07-20T11:28:42.899Z,4.70
2018-07-20T11:31:11.342Z,4.12
2018-07-20T11:33:39.732Z,4.60
2018-07-20T11:36:08.149Z,4.55
2018-07-20T11:38:36.517Z,4.92
2018-07-20T11:41:04.923Z,4.83
2018-07-20T11:43:33.558Z,4.70
2018-07-20T11:46:01.956Z,5.10
2018-07-20T11:48:30.642Z,4.70
2018-07-20T11:50:59.039Z,5.30
2018-07-20T11:53:27.536Z,4.65
2018-07-20T11:55:55.905Z,4.75
2018-07-20T11:58:24.334Z,4.97
2018-07-20T12:00:52.721Z,4.12
2018-07-20T12:03:21.107Z,5.20
2018-07-20T12:05:49.619Z,5.50
2018-07-20T12:08:18.063Z,5.67
2018-07-20T12:10:46.485Z,5.87
2018-07-20T12:13:14.935Z,5.42
2018-07-20T12:15:43.392Z,5.65
2018-07-20T12:18:11.805Z,5.58
2018-07-20T12:20:40.232Z,6.12
2018-07-20T12:23:08.569Z,5.58
2018-07-20T12:25:36.959Z,5.50
2018-07-20T12:28:05.420Z,5.67
2018-07-20T12:30:33.803Z,5.60
2018-07-20T12:33:02.223Z,5.72
2018-07-20T12:35:30.581Z,5.55
2018-07-20T12:37:58.990Z,5.55
2018-07-20T12:40:27.627Z,6.10
2018-07-20T12:42:56.030Z,5.60
2018-07-20T12:45:24.529Z,5.72
2018-07-20T12:47:52.949Z,6.28
2018-07-20T12:50:21.536Z,5.37
2018-07-20T12:52:49.874Z,4.92
2018-07-20T12:55:18.223Z,6.33
2018-07-20T12:57:46.781Z,6.15
2018-07-20T13:00:15.220Z,6.17
2018-07-20T13:02:43.621Z,6.22
2018-07-20T13:05:11.977Z,6.30
2018-07-20T13:07:40.460Z,5.58
2018-07-20T13:10:08.832Z,6.08
2018-07-20T13:12:37.259Z,6.15
2018-07-20T13:15:06.246Z,6.15
2018-07-20T13:17:34.642Z,6.45
2018-07-20T13:20:03.141Z,6.80
2018-07-20T13:22:31.611Z,5.97
2018-07-20T13:25:00.039Z,6.40
2018-07-20T13:27:28.410Z,5.75
2018-07-20T13:29:56.798Z,5.55
2018-07-20T13:32:25.223Z,6.55
2018-07-20T13:34:53.648Z,6.05
2018-07-20T13:37:22.154Z,6.12
2018-07-20T13:39:50.651Z,6.03
2018-07-20T13:42:19.066Z,5.87
2018-07-20T13:44:47.440Z,6.47
2018-07-20T13:47:15.911Z,6.87
2018-07-20T13:49:44.334Z,5.35
2018-07-20T13:52:12.840Z,6.03
2018-07-20T13:54:41.334Z,6.05
2018-07-20T13:57:09.785Z,6.47
2018-07-20T13:59:38.174Z,5.37
2018-07-20T14:02:06.657Z,6.05
2018-07-20T14:04:35.057Z,6.00
2018-07-20T14:07:03.564Z,6.15
2018-07-20T14:09:32.021Z,5.40
2018-07-20T14:12:00.477Z,5.85
2018-07-20T14:14:28.904Z,5.92
2018-07-20T14:16:57.258Z,6.10
2018-07-20T14:19:25.626Z,5.47
2018-07-20T14:21:54.083Z,6.55
2018-07-20T14:24:22.515Z,5.87
2018-07-20T14:26:50.932Z,5.60
2018-07-20T14:29:19.305Z,5.87
2018-07-20T14:31:47.798Z,6.08
2018-07-20T14:34:16.193Z,5.97
2018-07-20T14:36:44.639Z,5.83
2018-07-20T14:39:14.048Z,6.87
2018-07-20T14:41:42.834Z,6.10
2018-07-20T14:44:11.251Z,6.37
2018-07-20T14:46:39.675Z,5.90
2018-07-20T14:49:08.069Z,5.78
2018-07-20T14:51:36.466Z,5.17
2018-07-20T14:54:04.901Z,5.40
2018-07-20T14:56:33.276Z,5.65
2018-07-20T14:59:01.660Z,6.00
2018-07-20T15:01:30.081Z,5.50
2018-07-20T15:03:58.553Z,5.40
2018-07-20T15:06:26.950Z,5.90
2018-07-20T15:08:55.349Z,5.87
2018-07-20T15:11:23.777Z,5.97
2018-07-20T15:13:52.276Z,5.85
2018-07-20T15:16:20.752Z,6.10
2018-07-20T15:18:49.165Z,6.00
2018-07-20T15:21:17.688Z,5.85
2018-07-20T15:23:46.101Z,6.53
2018-07-20T15:26:14.497Z,6.00
2018-07-20T15:28:42.887Z,6.40
2018-07-20T15:31:11.384Z,6.42
2018-07-20T15:33:39.862Z,7.05
2018-07-20T15:36:08.387Z,6.40
2018-07-20T15:38:36.842Z,6.20
2018-07-20T15:41:05.268Z,6.70
2018-07-20T15:43:33.717Z,5.90
2018-07-20T15:46:06.043Z,6.20
2018-07-20T15:48:30.592Z,6.70
2018-07-20T15:50:58.997Z,6.45
2018-07-20T15:53:42.738Z,5.92
2018-07-20T15:55:56.124Z,6.97
2018-07-20T15:58:24.486Z,6.10
2018-07-20T16:00:52.919Z,6.67
2018-07-20T16:03:21.528Z,6.33
2018-07-20T16:05:49.959Z,6.37
2018-07-20T16:08:18.339Z,6.65
2018-07-20T16:10:46.754Z,5.97
2018-07-20T16:13:15.160Z,6.50
2018-07-20T16:15:43.535Z,6.60
2018-07-20T16:18:12.060Z,6.50
2018-07-20T16:20:40.476Z,6.20
2018-07-20T16:23:09.009Z,6.47
2018-07-20T16:25:37.487Z,6.35
2018-07-20T16:28:05.870Z,6.70
2018-07-20T16:30:34.250Z,6.03
2018-07-20T16:33:02.634Z,5.87
2018-07-20T16:35:31.053Z,6.15
2018-07-20T16:37:59.532Z,6.35
2018-07-20T16:40:28.191Z,6.05
2018-07-20T16:42:56.705Z,5.83
2018-07-20T16:45:25.209Z,5.78
2018-07-20T16:47:53.573Z,6.35
2018-07-20T16:50:21.949Z,6.40
2018-07-20T16:52:50.497Z,5.78
2018-07-20T16:55:18.960Z,6.55
2018-07-20T16:57:47.333Z,6.50
2018-07-20T17:00:15.769Z,6.28
2018-07-20T17:02:44.164Z,6.25
2018-07-20T17:05:12.583Z,6.03
2018-07-20T17:07:40.996Z,6.62
2018-07-20T17:10:09.490Z,6.47
2018-07-20T17:12:38.103Z,6.25
2018-07-20T17:15:06.663Z,7.15
2018-07-20T17:17:35.108Z,6.42
2018-07-20T17:20:03.690Z,6.50
2018-07-20T17:22:32.189Z,6.08
2018-07-20T17:25:00.589Z,6.12
2018-07-20T17:27:29.011Z,6.35
2018-07-20T17:29:57.473Z,6.30
2018-07-20T17:32:25.934Z,6.28
2018-07-20T17:34:54.391Z,6.10
2018-07-20T17:37:22.879Z,6.30
2018-07-20T17:39:51.304Z,6.00
2018-07-20T17:42:19.806Z,6.00
2018-07-20T17:44:48.284Z,6.30
2018-07-20T17:47:16.692Z,6.45
2018-07-20T17:49:45.142Z,7.28
2018-07-20T17:52:13.556Z,6.70
2018-07-20T17:54:41.993Z,6.60
2018-07-20T17:57:10.661Z,6.70
2018-07-20T17:59:39.172Z,7.08
2018-07-20T18:02:07.766Z,6.53
2018-07-20T18:04:36.407Z,5.97
2018-07-20T18:07:04.917Z,6.20
2018-07-20T18:09:33.289Z,5.87
2018-07-20T18:12:01.802Z,5.85
2018-07-20T18:14:30.209Z,6.37
2018-07-20T18:16:58.612Z,5.60
2018-07-20T18:19:27.036Z,5.60
2018-07-20T18:21:55.500Z,6.08
2018-07-20T18:24:23.902Z,5.75
2018-07-20T18:26:52.354Z,5.97
2018-07-20T18:29:20.826Z,5.78
2018-07-20T18:31:49.296Z,6.53
2018-07-20T18:34:17.789Z,6.67
2018-07-20T18:36:46.179Z,5.72
2018-07-20T18:39:14.681Z,6.35
2018-07-20T18:41:43.131Z,6.42
2018-07-20T18:44:11.556Z,6.10
2018-07-20T18:46:40.149Z,6.25
2018-07-20T18:49:08.760Z,6.33
2018-07-20T18:51:37.715Z,6.22
2018-07-20T18:54:06.630Z,6.42
2018-07-20T18:56:35.611Z,6.87
2018-07-20T18:59:04.298Z,6.53
2018-07-20T19:01:32.967Z,6.00
2018-07-20T19:04:02.412Z,5.95
2018-07-20T19:06:31.079Z,6.53
2018-07-20T19:08:59.629Z,6.37
2018-07-20T19:11:28.460Z,6.15
2018-07-20T19:13:57.083Z,6.12
2018-07-20T19:16:25.734Z,6.67
2018-07-20T19:18:54.504Z,5.83
2018-07-20T19:21:23.092Z,6.37
2018-07-20T19:23:51.819Z,6.13
2018-07-20T19:26:20.523Z,5.80
2018-07-20T19:28:49.169Z,6.43
2018-07-20T19:31:17.823Z,6.13
2018-07-20T19:33:46.965Z,5.83
2018-07-20T19:36:15.650Z,6.20
2018-07-20T19:38:44.295Z,5.80
2018-07-20T19:41:12.899Z,6.13
2018-07-20T19:43:41.501Z,6.37
2018-07-20T19:46:10.265Z,5.63
2018-07-20T19:48:39.131Z,6.10
2018-07-20T19:51:07.748Z,5.40
2018-07-20T19:53:36.429Z,5.87
2018-07-20T19:56:05.177Z,6.03
2018-07-20T19:58:33.942Z,5.63
2018-07-20T20:01:02.752Z,5.80
2018-07-20T20:03:31.437Z,5.43
2018-07-20T20:06:00.270Z,5.83
2018-07-20T20:08:29.054Z,5.47
2018-07-20T20:10:57.891Z,5.03
2018-07-20T20:13:26.558Z,5.00
2018-07-20T20:15:55.190Z,5.43
2018-07-20T20:18:23.686Z,4.87
2018-07-20T20:20:52.165Z,5.57
2018-07-20T20:23:20.713Z,5.10
2018-07-20T20:25:49.323Z,5.37
2018-07-20T20:28:18.036Z,5.37
2018-07-20T20:30:46.784Z,5.63
2018-07-20T20:33:15.345Z,4.87
2018-07-20T20:35:43.992Z,5.27
2018-07-20T20:38:12.611Z,5.50
2018-07-20T20:40:41.171Z,5.37
2018-07-20T20:43:09.772Z,5.27
2018-07-20T20:45:38.352Z,4.83
2018-07-20T20:48:07.353Z,4.97
2018-07-20T20:50:35.886Z,5.17
2018-07-20T20:53:04.573Z,5.30
2018-07-20T20:55:33.321Z,5.13
2018-07-20T20:58:01.989Z,5.00
2018-07-20T21:00:30.598Z,4.90
2018-07-20T21:03:02.731Z,5.37
2018-07-20T21:05:33.991Z,4.60
2018-07-20T21:08:04.977Z,5.17
2018-07-20T21:10:36.385Z,5.17
2018-07-20T21:13:09.090Z,4.20
2018-07-20T21:15:42.081Z,5.33
2018-07-20T21:18:15.444Z,5.00
2018-07-20T21:20:48.503Z,4.80
2018-07-20T21:23:20.276Z,4.97
2018-07-20T21:25:52.368Z,4.67
2018-07-20T21:28:24.786Z,4.80
2018-07-20T21:30:57.296Z,4.73
2018-07-20T21:33:30.049Z,4.50
2018-07-20T21:36:02.153Z,4.43
2018-07-20T21:38:33.399Z,4.50
2018-07-20T21:41:06.096Z,4.53
2018-07-20T21:43:38.518Z,4.10
2018-07-20T21:46:14.962Z,4.65
2018-07-20T21:48:47.092Z,4.27
2018-07-20T21:51:20.288Z,4.67
2018-07-20T21:53:55.262Z,4.23
2018-07-20T21:56:27.825Z,4.60
2018-07-20T22:04:51.742Z,4.77
2018-07-20T22:07:29.785Z,3.70
2018-07-20T22:10:07.410Z,3.93
2018-07-20T22:15:32.088Z,3.90
2018-07-20T22:23:47.263Z,3.80
2018-07-20T22:26:19.140Z,3.70
2018-07-20T22:28:49.832Z,3.77
2018-07-20T22:31:21.168Z,3.80
2018-07-20T22:33:52.232Z,3.47
2018-07-20T22:36:23.129Z,3.77
2018-07-20T22:38:54.610Z,3.70
2018-07-20T22:47:08.561Z,3.17
2018-07-20T22:49:39.267Z,3.27
2018-07-20T23:00:38.450Z,3.20
2018-07-20T23:03:07.007Z,3.70
2018-07-20T23:05:35.517Z,3.37
2018-07-20T23:08:04.307Z,3.17
2018-07-20T23:10:32.931Z,3.00
2018-07-20T23:13:01.503Z,3.17
2018-07-20T23:15:33.131Z,3.03
2018-07-20T23:18:01.732Z,3.33
2018-07-20T23:20:30.331Z,3.73
2018-07-20T23:22:58.850Z,2.53
2018-07-20T23:25:27.429Z,3.73
2018-07-20T23:27:56.530Z,2.73
2018-07-20T23:30:26.386Z,3.30
2018-07-20T23:32:54.812Z,2.83
2018-07-20T23:35:23.861Z,2.90
2018-07-20T23:37:52.516Z,2.83
2018-07-20T23:40:21.029Z,3.03
2018-07-20T23:42:49.574Z,2.80
2018-07-20T23:45:18.159Z,2.80
2018-07-20T23:47:46.791Z,2.80
2018-07-20T23:50:15.580Z,3.10
2018-07-20T23:52:44.138Z,2.90
2018-07-20T23:55:12.755Z,3.30
2018-07-20T23:57:41.256Z,3.00
